Time;durP1;ratioP1;P1;durP2;ratioP2;P2;SDS_P1;SDS_P2;PMS_P1;PMS_P2;Temp;Humidity;BMP_temperature;BMP_pressure;BME280_temperature;BME280_humidity;BME280_pressure;Samples;Min_cycle;Max_cycle;Signal;HPM_P1;HPM_P2
2021/10/28 00:15:28;;;;;;;25.73;14.63;;;3.70;99.90;;;;;;4751770;30;20060;-81
2021/10/28 00:18:17;;;;;;;35.30;16.63;;;3.60;99.90;;;;;;4749880;30;20055;-81
2021/10/28 00:20:45;;;;;;;58.67;15.63;;;3.50;99.90;;;;;;4749925;30;20067;-80
2021/10/28 00:23:12;;;;;;;33.08;15.48;;;3.40;99.90;;;;;;4749894;30;20059;-80
2021/10/28 00:25:41;;;;;;;26.20;15.07;;;3.50;99.90;;;;;;4749340;30;20049;-80
2021/10/28 00:28:10;;;;;;;30.88;13.63;;;3.30;99.90;;;;;;4750295;30;20064;-80
2021/10/28 00:30:38;;;;;;;23.80;16.10;;;3.30;99.90;;;;;;4732980;30;20056;-80
2021/10/28 00:33:05;;;;;;;35.38;15.52;;;3.40;99.90;;;;;;4734318;30;20051;-81
2021/10/28 00:35:34;;;;;;;35.22;12.65;;;3.30;99.90;;;;;;4750013;30;20063;-80
2021/10/28 00:38:02;;;;;;;21.58;13.65;;;3.10;99.90;;;;;;4734116;30;20514;-80
2021/10/28 00:40:30;;;;;;;13.25;11.63;;;3.00;99.90;;;;;;4749744;30;20052;-80
2021/10/28 00:42:58;;;;;;;23.42;14.25;;;3.00;99.90;;;;;;4749323;30;20055;-80
2021/10/28 00:45:26;;;;;;;51.65;13.10;;;2.90;99.90;;;;;;4749105;30;20067;-80
2021/10/28 00:47:54;;;;;;;20.95;13.05;;;2.80;99.90;;;;;;4733885;30;20075;-80
2021/10/28 00:50:21;;;;;;;17.58;12.52;;;2.70;99.90;;;;;;4749121;30;20044;-80
2021/10/28 00:52:52;;;;;;;13.35;10.75;;;2.60;99.90;;;;;;4748312;30;20406;-80
2021/10/28 00:55:20;;;;;;;25.83;13.67;;;2.60;99.90;;;;;;4749704;30;20063;-80
2021/10/28 00:57:48;;;;;;;24.90;10.63;;;2.60;99.90;;;;;;4743098;30;20518;-80
2021/10/28 01:00:16;;;;;;;24.45;12.73;;;2.50;99.90;;;;;;4749018;30;20060;-80
2021/10/28 01:02:44;;;;;;;16.30;11.25;;;2.30;99.90;;;;;;4733526;30;20431;-80
2021/10/28 01:05:13;;;;;;;16.95;11.20;;;2.20;99.90;;;;;;4745421;30;20052;-80
2021/10/28 01:07:41;;;;;;;40.90;10.02;;;2.10;99.90;;;;;;4781136;30;20514;-80
2021/10/28 01:10:09;;;;;;;14.63;8.40;;;2.10;99.90;;;;;;4766652;30;20052;-80
2021/10/28 01:12:36;;;;;;;44.05;8.57;;;2.00;99.90;;;;;;4767376;30;20063;-79
2021/10/28 01:15:12;;;;;;;84.82;13.05;;;2.00;99.90;;;;;;4750069;30;20511;-79
2021/10/28 01:17:40;;;;;;;27.95;9.40;;;1.90;99.90;;;;;;4751035;30;20074;-80
2021/10/28 01:20:09;;;;;;;13.75;10.48;;;1.90;99.90;;;;;;4767524;30;20416;-80
2021/10/28 01:22:40;;;;;;;11.20;8.98;;;1.80;99.90;;;;;;4767053;30;20058;-79
2021/10/28 01:25:08;;;;;;;33.25;9.98;;;1.70;99.90;;;;;;4761318;30;20047;-80
2021/10/28 01:27:36;;;;;;;14.25;9.57;;;1.80;99.90;;;;;;4735606;30;20063;-79
2021/10/28 01:30:05;;;;;;;19.55;8.65;;;1.80;99.90;;;;;;4721111;30;20392;-79
2021/10/28 01:32:33;;;;;;;13.45;9.05;;;1.70;99.90;;;;;;4753249;30;20695;-79
2021/10/28 01:35:01;;;;;;;12.90;7.78;;;1.70;99.90;;;;;;4736222;30;20053;-79
2021/10/28 01:37:29;;;;;;;11.65;8.30;;;1.70;99.90;;;;;;4752366;30;20795;-80
2021/10/28 01:39:56;;;;;;;13.23;8.93;;;1.60;99.90;;;;;;4752315;30;20170;-80
2021/10/28 01:42:24;;;;;;;12.05;8.55;;;1.70;99.90;;;;;;4736044;30;20060;-80
2021/10/28 01:44:52;;;;;;;11.52;7.22;;;1.70;99.90;;;;;;4751828;30;20060;-80
2021/10/28 01:47:20;;;;;;;11.07;7.97;;;1.60;99.90;;;;;;4752508;30;20394;-80
2021/10/28 01:49:48;;;;;;;11.32;9.32;;;1.70;99.90;;;;;;4736360;30;20513;-80
2021/10/28 01:52:16;;;;;;;13.55;10.05;;;1.80;99.90;;;;;;4752858;30;20063;-79
2021/10/28 01:54:44;;;;;;;11.10;9.20;;;1.80;99.90;;;;;;4735934;30;20063;-80
2021/10/28 01:57:21;;;;;;;10.05;9.10;;;1.80;99.90;;;;;;4736461;30;20053;-80
2021/10/28 01:59:49;;;;;;;11.35;9.25;;;1.90;99.90;;;;;;4750764;30;20073;-80
2021/10/28 02:02:17;;;;;;;12.68;8.20;;;1.90;99.90;;;;;;4736080;30;20059;-80
2021/10/28 02:04:45;;;;;;;14.20;9.63;;;2.00;99.90;;;;;;4759450;30;20044;-80
2021/10/28 02:07:13;;;;;;;16.25;11.13;;;2.10;99.90;;;;;;4768900;30;20051;-80
2021/10/28 02:09:41;;;;;;;14.18;9.88;;;2.20;99.90;;;;;;4769442;30;20044;-80
2021/10/28 02:12:09;;;;;;;33.78;12.20;;;2.40;99.90;;;;;;4769785;30;20055;-80
2021/10/28 02:14:37;;;;;;;27.67;14.30;;;2.40;99.90;;;;;;4747915;30;20515;-80
2021/10/28 02:17:05;;;;;;;22.40;11.50;;;2.40;99.90;;;;;;4746001;30;20685;-80
2021/10/28 02:19:32;;;;;;;21.75;10.38;;;2.50;99.90;;;;;;4711370;30;20504;-80
2021/10/28 02:22:01;;;;;;;19.40;13.68;;;2.60;99.90;;;;;;4751181;30;20514;-80
2021/10/28 02:24:30;;;;;;;14.18;10.77;;;2.70;99.90;;;;;;4752004;30;20063;-80
2021/10/28 02:26:59;;;;;;;18.60;11.32;;;2.70;99.90;;;;;;4751583;30;20052;-80
2021/10/28 02:29:27;;;;;;;25.80;11.77;;;2.80;99.90;;;;;;4735320;30;20044;-80
2021/10/28 02:31:57;;;;;;;19.98;10.13;;;3.00;99.90;;;;;;4751666;30;20044;-80
2021/10/28 02:34:25;;;;;;;25.95;12.88;;;2.80;99.90;;;;;;4751466;30;20055;-80
2021/10/28 02:36:53;;;;;;;17.73;11.98;;;2.90;99.90;;;;;;4751644;30;20059;-80
2021/10/28 02:39:21;;;;;;;31.13;12.20;;;3.00;99.90;;;;;;4751536;30;20048;-80
2021/10/28 02:41:49;;;;;;;62.85;15.10;;;3.00;99.90;;;;;;4751115;30;20052;-80
2021/10/28 02:44:17;;;;;;;42.80;13.98;;;3.00;99.90;;;;;;4751614;30;20056;-80
2021/10/28 02:46:45;;;;;;;96.53;19.67;;;3.00;99.90;;;;;;4750810;30;20055;-80
2021/10/28 02:49:14;;;;;;;60.58;15.38;;;3.10;99.90;;;;;;4751020;30;20124;-79
2021/10/28 02:51:46;;;;;;;58.38;14.07;;;3.10;99.90;;;;;;4751424;30;20052;-80
2021/10/28 02:54:15;;;;;;;16.83;12.50;;;3.10;99.90;;;;;;4751048;30;20059;-80
2021/10/28 02:56:43;;;;;;;53.72;14.43;;;3.20;99.90;;;;;;4750978;30;20056;-80
2021/10/28 02:59:11;;;;;;;21.02;13.43;;;3.30;99.90;;;;;;4751244;30;20057;-80
2021/10/28 03:01:50;;;;;;;22.13;11.75;;;3.30;99.90;;;;;;4750298;30;20059;-80
2021/10/28 03:04:21;;;;;;;61.20;14.82;;;3.40;99.90;;;;;;4755810;30;20062;-80
2021/10/28 03:06:49;;;;;;;71.10;17.13;;;3.40;99.90;;;;;;4752903;30;20048;-80
2021/10/28 03:09:20;;;;;;;46.72;16.58;;;3.40;99.90;;;;;;4768486;30;20055;-80
2021/10/28 03:11:51;;;;;;;39.88;13.75;;;3.40;99.90;;;;;;4768638;30;20487;-80
2021/10/28 03:14:22;;;;;;;163.30;20.15;;;3.40;99.90;;;;;;4768323;30;20059;-80
2021/10/28 03:27:26;;;;;;;45.38;18.15;;;3.30;99.90;;;;;;4748441;30;20057;-80
2021/10/28 03:29:55;;;;;;;125.18;22.17;;;3.30;99.90;;;;;;4748717;30;20049;-80
2021/10/28 03:32:25;;;;;;;108.53;19.88;;;3.20;99.90;;;;;;4751048;30;20052;-79
2021/10/28 03:34:53;;;;;;;80.57;20.63;;;3.10;99.90;;;;;;4749082;30;20060;-80
2021/10/28 03:37:26;;;;;;;70.18;16.90;;;3.00;99.90;;;;;;4751813;30;20061;-87
2021/10/28 04:01:54;;;;;;;33.67;13.15;;;2.20;99.90;;;;;;4733794;30;20097;-84
2021/10/28 04:31:25;;;;;;;15.57;8.25;;;1.60;99.90;;;;;;4763295;30;20055;-83
2021/10/28 04:33:54;;;;;;;12.50;10.70;;;1.60;99.90;;;;;;4733789;30;20048;-83
2021/10/28 04:36:28;;;;;;;40.60;12.63;;;1.70;99.90;;;;;;4750372;30;20071;-83
2021/10/28 04:39:03;;;;;;;62.30;13.43;;;1.60;99.90;;;;;;4748131;30;20059;-84
2021/10/28 04:41:31;;;;;;;21.85;9.18;;;1.50;99.90;;;;;;4728968;30;20067;-79
2021/10/28 04:44:01;;;;;;;32.28;9.65;;;1.40;99.90;;;;;;4716705;30;20764;-79
2021/10/28 04:46:29;;;;;;;18.75;9.98;;;1.30;99.90;;;;;;4718743;30;20055;-79
2021/10/28 04:48:56;;;;;;;12.48;6.47;;;1.40;99.90;;;;;;4736288;30;20068;-80
2021/10/28 04:51:24;;;;;;;17.48;7.63;;;1.40;99.90;;;;;;4732333;30;20083;-78
2021/10/28 04:53:52;;;;;;;23.08;8.20;;;1.40;99.90;;;;;;4701727;30;20057;-80
2021/10/28 04:56:20;;;;;;;13.82;7.40;;;1.50;99.90;;;;;;4725738;30;20076;-85
2021/10/28 04:58:47;;;;;;;15.93;8.70;;;1.50;99.90;;;;;;4731767;30;20499;-83
2021/10/28 05:01:15;;;;;;;67.53;11.23;;;1.50;99.90;;;;;;4730478;30;20060;-82
2021/10/28 05:03:43;;;;;;;55.80;10.48;;;1.50;99.90;;;;;;4734865;30;20488;-79
2021/10/28 05:06:12;;;;;;;35.83;14.43;;;1.50;99.90;;;;;;4771089;30;20074;-81
2021/10/28 05:08:40;;;;;;;63.53;15.20;;;1.50;99.90;;;;;;4770816;30;20060;-83
2021/10/28 05:11:08;;;;;;;49.35;12.57;;;1.50;99.90;;;;;;4771219;30;20063;-82
2021/10/28 05:13:36;;;;;;;72.78;13.18;;;1.40;99.90;;;;;;4743613;30;20052;-83
2021/10/28 05:16:05;;;;;;;128.80;17.25;;;1.30;99.90;;;;;;4753524;30;20064;-83
2021/10/28 05:18:39;;;;;;;140.23;20.90;;;1.30;99.90;;;;;;4766701;30;20058;-83
2021/10/28 05:21:09;;;;;;;114.72;21.85;;;1.30;99.90;;;;;;4744065;30;20048;-83
2021/10/28 05:23:38;;;;;;;40.97;9.57;;;1.30;99.90;;;;;;4716070;30;20049;-84
2021/10/28 05:26:07;;;;;;;60.40;14.32;;;1.20;99.90;;;;;;4730474;30;20063;-85
2021/10/28 05:28:35;;;;;;;65.45;10.07;;;1.20;99.90;;;;;;4722376;30;20067;-82
2021/10/28 05:31:03;;;;;;;26.30;6.25;;;1.20;99.90;;;;;;4735310;30;20434;-84
2021/10/28 05:33:31;;;;;;;19.45;9.02;;;1.10;99.90;;;;;;4735779;30;20048;-84
2021/10/28 05:35:59;;;;;;;13.65;7.20;;;1.10;99.90;;;;;;4736891;30;20052;-84
2021/10/28 05:38:26;;;;;;;86.47;11.70;;;1.10;99.90;;;;;;4751583;30;20059;-84
2021/10/28 05:40:54;;;;;;;35.25;10.32;;;1.00;99.90;;;;;;4751743;30;20555;-84
2021/10/28 05:43:22;;;;;;;14.05;7.28;;;1.00;99.90;;;;;;4735431;30;20521;-84
2021/10/28 05:45:50;;;;;;;67.57;9.38;;;0.90;99.90;;;;;;4751095;30;20418;-84
2021/10/28 05:48:18;;;;;;;25.98;7.93;;;0.90;99.90;;;;;;4735937;30;20067;-84
2021/10/28 05:50:46;;;;;;;39.92;9.40;;;1.00;99.90;;;;;;4751317;30;20056;-84
2021/10/28 05:53:14;;;;;;;17.88;7.70;;;1.10;99.90;;;;;;4735844;30;20414;-84
2021/10/28 05:55:42;;;;;;;15.57;6.15;;;1.10;99.90;;;;;;4751402;30;20060;-84
2021/10/28 05:58:10;;;;;;;39.15;9.70;;;1.10;99.90;;;;;;4751199;30;20056;-83
2021/10/28 06:00:38;;;;;;;15.95;9.25;;;1.20;99.90;;;;;;4765787;30;20050;-83
2021/10/28 06:03:06;;;;;;;20.08;7.05;;;1.40;99.90;;;;;;4767506;30;20063;-84
2021/10/28 06:05:39;;;;;;;11.25;6.70;;;1.40;99.90;;;;;;4768776;30;20058;-84
2021/10/28 06:08:06;;;;;;;33.72;8.02;;;1.50;99.90;;;;;;4754279;30;20056;-84
2021/10/28 06:10:34;;;;;;;9.30;6.43;;;1.60;99.90;;;;;;4751040;30;20060;-81
2021/10/28 06:13:05;;;;;;;24.15;9.05;;;1.60;99.90;;;;;;4760656;30;20058;-85
2021/10/28 06:15:35;;;;;;;15.05;6.57;;;1.70;99.90;;;;;;4752309;30;20055;-86
2021/10/28 06:18:49;;;;;;;24.40;10.18;;;1.80;99.90;;;;;;4751278;30;20056;-85
2021/10/28 06:20:54;;;;;;;15.87;9.03;;;1.90;99.90;;;;;;4746938;30;20064;-85
2021/10/28 06:23:23;;;;;;;12.48;7.38;;;2.00;99.90;;;;;;4750359;30;20048;-85
2021/10/28 06:25:50;;;;;;;10.20;6.43;;;2.00;99.90;;;;;;4757470;30;20067;-85
2021/10/28 06:28:18;;;;;;;10.27;7.35;;;2.00;99.90;;;;;;4751554;30;20056;-84
2021/10/28 06:30:47;;;;;;;12.65;7.70;;;2.20;99.90;;;;;;4749852;30;20056;-85
2021/10/28 06:33:21;;;;;;;10.13;7.47;;;2.00;99.90;;;;;;4720683;30;20411;-85
2021/10/28 06:35:49;;;;;;;9.20;7.93;;;2.00;99.90;;;;;;4735879;30;20056;-85
2021/10/28 06:38:16;;;;;;;15.57;6.63;;;2.20;99.90;;;;;;4729166;30;20051;-85
2021/10/28 06:40:44;;;;;;;30.70;8.65;;;2.20;99.90;;;;;;4750691;30;20060;-84
2021/10/28 06:43:12;;;;;;;18.98;8.25;;;2.30;99.90;;;;;;4735191;30;20052;-84
2021/10/28 06:45:42;;;;;;;19.77;7.05;;;2.50;99.90;;;;;;4748781;30;20529;-83
2021/10/28 06:48:11;;;;;;;22.58;10.05;;;2.50;99.90;;;;;;4751538;30;20056;-84
2021/10/28 06:50:43;;;;;;;49.90;12.50;;;2.50;99.90;;;;;;4720543;30;20048;-86
2021/10/28 06:53:22;;;;;;;19.48;8.93;;;2.50;99.90;;;;;;4720864;30;20060;-85
2021/10/28 07:03:57;;;;;;;31.85;9.68;;;2.60;99.90;;;;;;4752648;30;20059;-85
2021/10/28 07:06:27;;;;;;;38.42;9.25;;;2.70;99.90;;;;;;4768125;30;20051;-85
2021/10/28 07:09:04;;;;;;;34.58;11.65;;;2.70;99.90;;;;;;4762468;30;20072;-85
2021/10/28 07:11:36;;;;;;;31.60;10.32;;;2.80;99.90;;;;;;4749042;30;20064;-84
2021/10/28 07:14:07;;;;;;;54.25;9.80;;;2.80;99.90;;;;;;4751574;30;20047;-85
2021/10/28 07:16:46;;;;;;;57.72;13.30;;;2.80;99.90;;;;;;4737670;30;20059;-85
2021/10/28 07:19:34;;;;;;;54.20;13.98;;;2.90;99.90;;;;;;4765573;30;20059;-85
2021/10/28 08:17:10;;;;;;;40.10;9.05;;;4.50;99.90;;;;;;4727257;30;20056;-82
2021/10/28 08:19:49;;;;;;;38.42;10.77;;;4.60;99.90;;;;;;4749674;30;20060;-82
2021/10/28 08:22:43;;;;;;;13.23;9.18;;;4.50;99.90;;;;;;4733254;30;20052;-82
2021/10/28 08:30:40;;;;;;;9.27;7.78;;;4.50;99.90;;;;;;4747790;30;20063;-82
2021/10/28 08:33:08;;;;;;;8.75;7.90;;;4.80;99.90;;;;;;4749166;30;20048;-82
2021/10/28 08:35:52;;;;;;;8.25;6.75;;;5.10;99.90;;;;;;4749638;30;20060;-82
2021/10/28 08:38:21;;;;;;;11.73;8.45;;;5.10;99.90;;;;;;4747490;30;20609;-82
2021/10/28 08:40:54;;;;;;;8.85;6.10;;;5.10;99.90;;;;;;4748271;30;20060;-82
2021/10/28 08:43:30;;;;;;;9.25;7.75;;;5.00;99.90;;;;;;4749383;30;20067;-82
2021/10/28 08:46:00;;;;;;;11.00;8.20;;;5.20;99.90;;;;;;4732484;30;20588;-82
2021/10/28 08:48:30;;;;;;;10.23;9.20;;;5.30;99.90;;;;;;4749459;30;20065;-82
2021/10/28 08:51:06;;;;;;;9.77;8.15;;;5.20;99.90;;;;;;4748873;30;20051;-82
2021/10/28 08:56:12;;;;;;;8.77;7.85;;;5.50;99.90;;;;;;4733154;30;20067;-82
2021/10/28 09:26:49;;;;;;;9.68;7.32;;;6.70;99.90;;;;;;4749912;30;20053;-83
2021/10/28 09:44:11;;;;;;;10.52;6.63;;;7.00;99.90;;;;;;4748747;30;20060;-83
2021/10/28 09:47:02;;;;;;;7.88;7.07;;;7.10;99.90;;;;;;4747837;30;20052;-83
2021/10/28 09:49:57;;;;;;;8.50;7.53;;;7.20;99.90;;;;;;4735590;30;20048;-83
2021/10/28 09:52:31;;;;;;;7.75;7.05;;;7.20;99.90;;;;;;4752079;30;20067;-84
2021/10/28 09:58:02;;;;;;;7.75;6.40;;;7.30;99.90;;;;;;4751569;30;20052;-83
2021/10/28 10:00:39;;;;;;;7.97;6.38;;;7.40;99.90;;;;;;4751416;30;20056;-83
2021/10/28 10:03:11;;;;;;;10.23;7.38;;;7.60;99.90;;;;;;4735485;30;20507;-84
2021/10/28 10:05:39;;;;;;;7.13;6.40;;;7.60;99.90;;;;;;4738655;30;20051;-84
2021/10/28 10:08:07;;;;;;;7.43;6.72;;;7.70;99.90;;;;;;4769429;30;20052;-83
2021/10/28 10:10:35;;;;;;;6.50;5.43;;;7.70;99.90;;;;;;4743060;30;20404;-84
2021/10/28 10:13:03;;;;;;;7.60;6.88;;;7.80;99.90;;;;;;4735510;30;20055;-84
2021/10/28 10:15:31;;;;;;;6.47;5.72;;;8.00;99.90;;;;;;4750916;30;20056;-83
2021/10/28 10:18:05;;;;;;;8.23;6.78;;;8.20;99.90;;;;;;4751144;30;20463;-84
2021/10/28 10:20:48;;;;;;;7.57;6.07;;;8.30;99.90;;;;;;4751423;30;20056;-85
2021/10/28 10:26:26;;;;;;;5.80;5.20;;;8.70;99.90;;;;;;4750960;30;20048;-84
2021/10/28 11:20:41;;;;;;;6.25;4.47;;;10.50;99.90;;;;;;4754391;30;20758;-85
2021/10/28 11:23:17;;;;;;;10.05;4.63;;;10.70;99.90;;;;;;4767289;30;20514;-86
2021/10/28 11:28:56;;;;;;;5.95;5.25;;;11.00;99.90;;;;;;4750472;30;20071;-85
2021/10/28 11:31:34;;;;;;;6.25;5.40;;;10.90;99.90;;;;;;4745166;30;20048;-85
2021/10/28 12:16:18;;;;;;;8.10;5.18;;;11.90;99.90;;;;;;4741488;30;20051;-81
2021/10/28 13:05:26;;;;;;;5.53;4.82;;;13.50;99.90;;;;;;4748372;30;20048;-83
2021/10/28 13:34:49;;;;;;;5.10;4.30;;;13.90;99.90;;;;;;4715375;30;20764;-83
2021/10/28 13:50:01;;;;;;;4.30;3.75;;;14.10;99.90;;;;;;4735191;30;20052;-83
2021/10/28 15:02:43;;;;;;;6.63;4.70;;;12.50;99.90;;;;;;4733987;30;20064;-83
2021/10/28 15:30:12;;;;;;;6.60;5.22;;;11.60;99.90;;;;;;4747711;30;20068;-83
2021/10/28 16:23:54;;;;;;;6.93;6.32;;;8.90;99.90;;;;;;4738665;30;20525;-85
2021/10/28 16:26:22;;;;;;;11.07;7.70;;;8.60;99.90;;;;;;4730519;30;20609;-85
2021/10/28 16:28:50;;;;;;;8.25;6.35;;;8.40;99.90;;;;;;4748475;30;20052;-86
2021/10/28 16:31:18;;;;;;;13.38;10.38;;;8.20;99.90;;;;;;4710791;30;20051;-85
2021/10/28 16:33:45;;;;;;;13.10;9.75;;;8.00;99.90;;;;;;4736356;30;20052;-85
2021/10/28 16:36:21;;;;;;;10.50;9.45;;;8.00;99.90;;;;;;4734002;30;20051;-86
2021/10/28 16:38:49;;;;;;;7.50;6.63;;;8.10;99.90;;;;;;4742359;30;20048;-86
2021/10/28 16:41:18;;;;;;;14.15;9.90;;;7.70;99.90;;;;;;4724715;30;20056;-85
2021/10/28 16:43:47;;;;;;;8.23;7.32;;;7.20;99.90;;;;;;4745419;30;20055;-85
2021/10/28 16:46:14;;;;;;;9.48;8.13;;;7.00;99.90;;;;;;4734652;30;20633;-86
2021/10/28 16:48:43;;;;;;;10.68;8.60;;;6.90;99.90;;;;;;4741811;30;20064;-85
2021/10/28 16:51:11;;;;;;;10.88;9.10;;;7.00;99.90;;;;;;4749881;30;20063;-85
2021/10/28 16:53:38;;;;;;;15.38;11.20;;;6.90;99.90;;;;;;4761961;30;20052;-86
2021/10/28 16:56:06;;;;;;;16.45;13.10;;;7.00;99.90;;;;;;4721033;30;20067;-86
2021/10/28 16:58:34;;;;;;;11.70;9.25;;;7.00;99.90;;;;;;4729811;30;20060;-86
2021/10/28 17:01:02;;;;;;;10.13;7.65;;;6.90;99.90;;;;;;4731794;30;20047;-86
2021/10/28 17:03:30;;;;;;;11.00;7.78;;;6.80;99.90;;;;;;4749756;30;20060;-84
2021/10/28 17:05:58;;;;;;;13.40;10.88;;;6.60;99.90;;;;;;4739187;30;20060;-84
2021/10/28 17:08:28;;;;;;;14.40;10.05;;;6.30;99.90;;;;;;4762420;30;20059;-83
2021/10/28 17:10:57;;;;;;;12.07;10.63;;;6.30;99.90;;;;;;4760107;30;20051;-84
2021/10/28 17:13:25;;;;;;;14.23;10.65;;;6.30;99.90;;;;;;4755522;30;20048;-84
2021/10/28 17:15:52;;;;;;;13.23;9.85;;;6.30;99.90;;;;;;4761745;30;20439;-83
2021/10/28 17:18:21;;;;;;;13.55;10.70;;;6.30;99.90;;;;;;4758235;30;20048;-83
2021/10/28 17:20:58;;;;;;;23.15;12.85;;;6.30;99.90;;;;;;4747182;30;20051;-85
2021/10/28 17:23:37;;;;;;;14.57;11.27;;;6.30;99.90;;;;;;4753378;30;20402;-83
2021/10/28 17:26:07;;;;;;;16.50;11.88;;;6.20;99.90;;;;;;4737534;30;20053;-83
2021/10/28 17:28:37;;;;;;;16.73;12.68;;;6.10;99.90;;;;;;4747856;30;20061;-82
2021/10/28 17:31:08;;;;;;;19.50;13.45;;;6.00;99.90;;;;;;4733015;30;20048;-83
2021/10/28 17:33:39;;;;;;;16.33;11.15;;;6.10;99.90;;;;;;4732578;30;20547;-86
2021/10/28 17:36:09;;;;;;;21.85;13.23;;;6.00;99.90;;;;;;4734437;30;20052;-84
2021/10/28 17:38:41;;;;;;;19.75;13.63;;;6.00;99.90;;;;;;4744329;30;20107;-84
2021/10/28 17:41:11;;;;;;;18.85;13.07;;;6.10;99.90;;;;;;4739493;30;20757;-84
2021/10/28 17:43:51;;;;;;;22.30;12.60;;;6.00;99.90;;;;;;4768505;30;20047;-82
2021/10/28 17:46:21;;;;;;;18.35;11.90;;;6.00;99.90;;;;;;4767198;30;20051;-83
2021/10/28 17:48:53;;;;;;;17.60;12.63;;;6.00;99.90;;;;;;4752838;30;20063;-81
2021/10/28 17:51:27;;;;;;;29.60;18.45;;;6.00;99.90;;;;;;4753499;30;20367;-81
2021/10/28 17:53:55;;;;;;;20.25;12.75;;;5.90;99.90;;;;;;4752883;30;20082;-81
2021/10/28 17:56:23;;;;;;;13.93;9.63;;;5.90;99.90;;;;;;4753304;30;20529;-82
2021/10/28 17:58:50;;;;;;;22.63;14.60;;;5.70;99.90;;;;;;4752446;30;20503;-78
2021/10/28 18:01:20;;;;;;;21.98;13.25;;;5.50;99.90;;;;;;4767982;30;20402;-78
2021/10/28 18:03:48;;;;;;;21.33;13.10;;;5.50;99.90;;;;;;4769197;30;20063;-78
2021/10/28 18:06:16;;;;;;;22.02;14.70;;;5.50;99.90;;;;;;4753080;30;20052;-78
2021/10/28 18:08:44;;;;;;;20.80;13.70;;;5.40;99.90;;;;;;4750414;30;20048;-78
2021/10/28 18:11:11;;;;;;;22.13;13.65;;;5.50;99.90;;;;;;4751271;30;20056;-77
2021/10/28 18:13:39;;;;;;;24.70;16.27;;;5.40;99.90;;;;;;4750972;30;20067;-78
2021/10/28 18:16:07;;;;;;;22.27;15.80;;;5.30;99.90;;;;;;4750769;30;20048;-78
2021/10/28 18:18:38;;;;;;;22.30;15.57;;;5.50;99.90;;;;;;4744760;30;20500;-78
2021/10/28 18:21:07;;;;;;;21.98;15.15;;;5.50;99.90;;;;;;4748181;30;20048;-78
2021/10/28 18:23:43;;;;;;;22.52;13.52;;;5.40;99.90;;;;;;4744087;30;20040;-79
2021/10/28 18:26:10;;;;;;;22.77;15.75;;;5.50;99.90;;;;;;4750492;30;20048;-79
2021/10/28 18:28:38;;;;;;;23.73;15.38;;;5.30;99.90;;;;;;4768405;30;20060;-78
2021/10/28 18:31:06;;;;;;;27.15;16.60;;;5.30;99.90;;;;;;4767095;30;20054;-79
2021/10/28 18:33:34;;;;;;;23.48;15.85;;;5.30;99.90;;;;;;4766138;30;20418;-82
2021/10/28 18:36:02;;;;;;;23.20;16.35;;;5.30;99.90;;;;;;4752153;30;20062;-80
2021/10/28 18:38:32;;;;;;;26.73;17.02;;;5.20;99.90;;;;;;4739038;30;20060;-80
2021/10/28 18:41:00;;;;;;;26.15;16.98;;;5.20;99.90;;;;;;4723948;30;20059;-81
2021/10/28 18:43:30;;;;;;;27.08;17.63;;;5.30;99.90;;;;;;4747758;30;20052;-81
2021/10/28 18:45:58;;;;;;;23.45;15.07;;;5.30;99.90;;;;;;4743860;30;20051;-81
2021/10/28 18:48:26;;;;;;;24.38;15.05;;;5.20;99.90;;;;;;4745532;30;20063;-81
2021/10/28 18:50:58;;;;;;;21.45;17.48;;;5.10;99.90;;;;;;4767662;30;20051;-81
2021/10/28 18:53:29;;;;;;;30.10;18.00;;;5.00;99.90;;;;;;4737196;30;20050;-81
2021/10/28 18:55:57;;;;;;;32.40;18.17;;;5.10;99.90;;;;;;4767890;30;20059;-80
2021/10/28 18:58:25;;;;;;;30.20;19.65;;;5.10;99.90;;;;;;4751494;30;20530;-81
2021/10/28 19:00:53;;;;;;;31.15;17.48;;;5.10;99.90;;;;;;4766451;30;20063;-81
2021/10/28 19:03:21;;;;;;;27.00;16.55;;;5.10;99.90;;;;;;4731643;30;20072;-80
2021/10/28 19:05:53;;;;;;;24.63;18.33;;;5.10;99.90;;;;;;4736727;30;20044;-80
2021/10/28 19:08:22;;;;;;;26.38;17.67;;;5.10;99.90;;;;;;4747638;30;20502;-80
2021/10/28 19:10:51;;;;;;;26.10;18.17;;;5.10;99.90;;;;;;4721979;30;20059;-81
2021/10/28 19:13:19;;;;;;;27.50;20.00;;;5.10;99.90;;;;;;4738173;30;20063;-80
2021/10/28 19:15:47;;;;;;;33.67;17.52;;;5.10;99.90;;;;;;4746401;30;20056;-82
2021/10/28 19:18:15;;;;;;;24.52;19.38;;;5.30;99.90;;;;;;4752875;30;20036;-81
2021/10/28 19:20:42;;;;;;;24.23;17.90;;;5.00;99.90;;;;;;4757823;30;20056;-82
2021/10/28 19:23:10;;;;;;;29.45;18.85;;;4.70;99.90;;;;;;4750093;30;20392;-81
2021/10/28 19:25:38;;;;;;;30.08;20.83;;;4.60;99.90;;;;;;4755045;30;20047;-82
2021/10/28 19:28:08;;;;;;;26.10;20.17;;;4.60;99.90;;;;;;4749043;30;20060;-82
2021/10/28 19:30:41;;;;;;;28.23;17.70;;;4.60;99.90;;;;;;4731764;30;20395;-81
2021/10/28 19:33:13;;;;;;;27.35;18.60;;;4.60;99.90;;;;;;4753115;30;20090;-81
2021/10/28 19:35:45;;;;;;;29.02;18.13;;;4.60;99.90;;;;;;4761166;30;20048;-81
2021/10/28 19:41:06;;;;;;;28.85;16.15;;;4.80;99.90;;;;;;4751685;30;20056;-81
2021/10/28 19:46:21;;;;;;;34.70;16.65;;;4.60;99.90;;;;;;4740958;30;20257;-82
2021/10/28 19:48:51;;;;;;;33.60;16.17;;;4.40;99.90;;;;;;4758626;30;20083;-81
2021/10/28 19:51:19;;;;;;;24.08;16.30;;;4.30;99.90;;;;;;4748302;30;20058;-81
2021/10/28 19:53:48;;;;;;;31.73;18.15;;;4.30;99.90;;;;;;4763970;30;20078;-81
2021/10/28 19:56:19;;;;;;;28.23;18.77;;;4.60;99.90;;;;;;4758073;30;20059;-81
2021/10/28 19:58:54;;;;;;;23.20;15.15;;;4.60;99.90;;;;;;4760293;30;20047;-82
2021/10/28 20:20:31;;;;;;;33.58;18.08;;;4.30;99.90;;;;;;4753716;30;20467;-81
2021/10/28 20:22:58;;;;;;;32.63;22.92;;;4.20;99.90;;;;;;4733026;30;20052;-82
2021/10/28 20:25:29;;;;;;;31.70;22.80;;;4.30;99.90;;;;;;4721210;30;20052;-82
2021/10/28 20:28:03;;;;;;;32.55;16.65;;;4.20;99.90;;;;;;4780675;29;20058;-82
2021/10/28 20:30:55;;;;;;;31.17;18.65;;;4.20;99.90;;;;;;4765572;30;20055;-82
2021/10/28 20:33:22;;;;;;;26.40;16.80;;;4.20;99.90;;;;;;4765725;30;20052;-82
2021/10/28 20:38:32;;;;;;;22.50;14.75;;;4.10;99.90;;;;;;4766504;30;20051;-82
2021/10/28 20:41:00;;;;;;;23.50;15.02;;;4.10;99.90;;;;;;4749811;30;20060;-82
2021/10/28 20:43:28;;;;;;;26.02;14.30;;;4.10;99.90;;;;;;4765628;30;20067;-82
2021/10/28 20:45:56;;;;;;;19.98;13.43;;;4.20;99.90;;;;;;4765582;30;20075;-82
2021/10/28 20:48:24;;;;;;;23.92;15.25;;;4.20;99.90;;;;;;4716460;30;20581;-82
2021/10/28 20:50:52;;;;;;;24.60;18.50;;;4.10;99.90;;;;;;4729593;30;20053;-82
2021/10/28 20:53:20;;;;;;;25.67;14.13;;;4.00;99.90;;;;;;4731036;30;20056;-82
2021/10/28 20:55:48;;;;;;;30.05;18.27;;;4.00;99.90;;;;;;4731437;30;20056;-82
2021/10/28 20:58:16;;;;;;;27.88;17.25;;;4.10;99.90;;;;;;4730892;30;20053;-82
2021/10/28 21:00:44;;;;;;;27.92;15.80;;;4.10;99.90;;;;;;4730169;30;20056;-82
2021/10/28 21:03:12;;;;;;;27.10;16.42;;;4.20;99.90;;;;;;4730396;30;20067;-82
2021/10/28 21:05:40;;;;;;;25.83;15.57;;;4.20;99.90;;;;;;4758069;30;20047;-82
2021/10/28 21:08:11;;;;;;;27.55;15.07;;;4.20;99.90;;;;;;4766949;30;20078;-81
2021/10/28 21:10:39;;;;;;;39.13;16.90;;;4.10;99.90;;;;;;4733218;30;20048;-81
2021/10/28 21:13:06;;;;;;;19.80;12.82;;;4.10;99.90;;;;;;4717607;30;20503;-81
2021/10/28 21:15:34;;;;;;;23.70;16.70;;;4.10;99.90;;;;;;4747385;30;20065;-81
2021/10/28 21:18:02;;;;;;;82.22;22.92;;;3.90;99.90;;;;;;4736030;30;20051;-82
2021/10/28 21:20:30;;;;;;;89.57;24.90;;;3.90;99.90;;;;;;4765475;30;20067;-82
2021/10/28 21:23:00;;;;;;;24.92;14.40;;;3.90;99.90;;;;;;4756287;30;20063;-81
2021/10/28 21:25:28;;;;;;;23.40;15.48;;;4.00;99.90;;;;;;4722175;30;20049;-82
2021/10/28 21:27:56;;;;;;;25.15;16.42;;;3.90;99.90;;;;;;4715197;30;20076;-81
2021/10/28 21:30:43;;;;;;;48.10;19.55;;;4.00;99.90;;;;;;4740795;30;20055;-81
2021/10/28 21:33:12;;;;;;;114.20;20.92;;;3.80;99.90;;;;;;4748370;30;20056;-81
2021/10/28 21:35:41;;;;;;;100.35;21.13;;;3.80;99.90;;;;;;4733193;30;20056;-81
2021/10/28 21:38:15;;;;;;;57.40;18.45;;;3.70;99.90;;;;;;4732329;30;20506;-81
2021/10/28 21:40:43;;;;;;;33.42;15.60;;;3.70;99.90;;;;;;4731701;30;20067;-81
2021/10/28 21:43:12;;;;;;;23.98;15.02;;;3.60;99.90;;;;;;4733038;30;20798;-81
2021/10/28 21:45:41;;;;;;;29.35;17.40;;;3.60;99.90;;;;;;4720586;30;20048;-81
2021/10/28 21:48:12;;;;;;;25.77;15.75;;;3.70;99.90;;;;;;4736339;30;20064;-81
2021/10/28 21:50:39;;;;;;;21.90;12.52;;;3.90;99.90;;;;;;4750762;30;20056;-81
2021/10/28 21:53:15;;;;;;;53.88;12.25;;;4.00;99.90;;;;;;4734733;30;20040;-81
2021/10/28 21:56:04;;;;;;;75.70;14.75;;;3.80;99.90;;;;;;4709758;30;20053;-81
2021/10/28 21:58:49;;;;;;;52.80;16.98;;;3.40;99.90;;;;;;4733560;30;20052;-81
2021/10/28 22:01:35;;;;;;;33.03;16.77;;;3.30;99.90;;;;;;4746424;30;20060;-81
2021/10/28 22:24:10;;;;;;;79.20;15.15;;;3.50;99.90;;;;;;4751002;30;20057;-81
2021/10/28 22:26:12;;;;;;;44.13;11.82;;;3.10;99.90;;;;;;4749141;30;20052;-81